• Join FlightAware (Why Join?)
  • Login
  • US Flag 
03:18PM EDT


 

Airport Tracker/Info


-or-


 

Live Flight TrackerFlight Track Log ✈ AAL1882 ✈ 27-Apr-2012 ✈ KTUL - KDFW

Flight Track Log - Related Links

Times and Time Zones

All times are in EDT time to prevent confusion due to time zone crossing. See the AAL1882 flight status page for this flight to view local times or setup timezone preferences in your user account.

Time Position Orientation Groundspeed Altitude Reporting Facility
EDT Latitude Longitude Course Direction KTS MPH feet Rate Location/Type
12:23PM 36.1797 -95.8815 310° West  Level FlightAware Approximate
12:24PM 36.1842 -95.8881 176° South 136 157 1,400  Level Kansas City Center
12:24PM 36.1528 -95.8850 177° South 165 190 2,900 2,400 Climbing Kansas City Center
12:25PM 36.0944 -95.8814 176° South 225 259 5,600 3,420 Climbing Kansas City Center
12:26PM 36.0131 -95.8747 176° South 245 282 10,200 2,700 Climbing Kansas City Center
12:29PM 35.8386 -95.8597 178° South 299 344 15,000 2,280 Climbing Fort Worth Center
12:30PM 35.7447 -95.8561 175° South 325 374 17,800 3,480 Climbing Fort Worth Center
12:31PM 35.6467 -95.8453 173° South 346 398 22,000 2,100 Climbing Fort Worth Center
12:32PM 35.5464 -95.8292 176° South 354 407 22,000  Level Fort Worth Center
12:33PM 35.4461 -95.8211 181° South 361 415 22,000  Level Fort Worth Center
12:34PM 35.3483 -95.8228 175° South 361 415 22,000  Level Fort Worth Center
12:35PM 35.2458 -95.8122 177° South 361 415 22,000  Level Fort Worth Center
12:36PM 35.1394 -95.8064 175° South 380 437 22,000  Level Fort Worth Center
12:37PM 35.0331 -95.7958 177° South 385 443 22,000  Level Fort Worth Center
12:38PM 34.9244 -95.7878 184° South 385 443 22,000  Level Fort Worth Center
12:39PM 34.8078 -95.7975 196° South 385 443 22,000  Level Fort Worth Center
12:40PM 34.7058 -95.8322 196° South 385 443 22,000  Level Fort Worth Center
12:41PM 34.6083 -95.8669 196° South 379 436 22,000  Level Fort Worth Center
12:42PM 34.5189 -95.8989 196° South 374 430 22,000  Level Fort Worth Center
12:43PM 34.4192 -95.9333 196° South 379 436 22,000  Level Fort Worth Center
12:44PM 34.3153 -95.9703 196° South 379 436 22,000  Level Fort Worth Center
12:45PM 34.2175 -96.0044 189° South 379 436 22,000 -360 Level Fort Worth Center
12:46PM 34.1114 -96.0239 187° South 379 436 21,300 -1,020 Descending Fort Worth Center
12:47PM 34.0031 -96.0406 187° South 368 423 20,000 -1,260 Descending Fort Worth Center
12:48PM 33.9072 -96.0544 185° South 368 423 18,800 -1,260 Descending Fort Worth Center
12:49PM 33.8031 -96.0661 202° Southwest 371 427 17,500 -1,320 Descending Fort Worth Center
12:50PM 33.7178 -96.1075 211° Southwest 352 405 16,200 -1,500 Descending Fort Worth Center
12:51PM 33.6392 -96.1636 218° Southwest 337 388 14,600 -1,560 Descending Fort Worth Center
12:52PM 33.5850 -96.2144 213° Southwest 317 365 13,300 -1,380 Descending FAA TRACON SMA TRACON (SMA)
12:52PM 33.5336 -96.2539 223° Southwest 315 362 12,500 -1,140 Descending FAA TRACON SMA TRACON (SMA)
12:53PM 33.4947 -96.2972 224° Southwest 310 357 11,800 -1,080 Descending FAA TRACON SMA TRACON (SMA)
12:54PM 33.4544 -96.3439 226° Southwest 287 330 11,100 -720 Descending FAA TRACON SMA TRACON (SMA)
12:54PM 33.4186 -96.3878 223° Southwest 262 302 10,900 -180 Descending FAA TRACON SMA TRACON (SMA)
12:55PM 33.3867 -96.4231 224° Southwest 252 290 10,900 -480 Level FAA TRACON SMA TRACON (SMA)
12:56PM 33.3517 -96.4639 224° Southwest 254 292 10,300 -1,260 Descending FAA TRACON SMA TRACON (SMA)
12:56PM 33.3167 -96.5044 237° Southwest 251 289 9,300 -1,500 Descending FAA TRACON SMA TRACON (SMA)
12:57PM 33.2803 -96.5722 251° West 244 281 7,900 -1,260 Descending FAA TRACON SMA TRACON (SMA)
12:58PM 33.2667 -96.6186 249° West 243 280 7,200 -1,200 Descending FAA TRACON SMA TRACON (SMA)
12:59PM 33.2508 -96.6689 248° West 233 268 6,300 -1,440 Descending FAA TRACON SMA TRACON (SMA)
12:59PM 33.2344 -96.7183 247° West 234 269 5,300 -1,080 Descending FAA TRACON SMA TRACON (SMA)
01:00PM 33.2192 -96.7617 248° West 229 264 4,900 -300 Descending FAA TRACON SMA TRACON (SMA)
01:01PM 33.2028 -96.8100 238° Southwest 226 260 4,900  Level FAA TRACON SMA TRACON (SMA)
01:01PM 33.1800 -96.8531 224° Southwest 224 258 4,900 -480 Level FAA TRACON SMA TRACON (SMA)
01:02PM 33.1558 -96.8811 223° Southwest 196 226 4,300 -840 Descending FAA TRACON SMA TRACON (SMA)
01:03PM 33.1319 -96.9078 225° Southwest 163 188 3,800 -1,140 Descending FAA TRACON SMA TRACON (SMA)
01:03PM 33.1117 -96.9322 224° Southwest 151 174 2,800 -1,320 Descending FAA TRACON SMA TRACON (SMA)
01:04PM 33.0911 -96.9556 224° Southwest 166 191 2,100 -1,080 Descending FAA TRACON SMA TRACON (SMA)